TKJ4PG LTBR-LTCK
Flight info
| Callsign | TKJ4PG |
|---|---|
| Flight time | 1h 21m |
| Altitude | 35000 |
| Route | EKMEL UG8 GEM UL614 BULUT UG8 EZS UG81 BAYIR |
| Aircraft | A320/M-SDE3FGHIRWY/LB1 |
Departure
| Time | 2026-04-23 12:49 |
|---|---|
| Airport | Bursa Yenişehir Airport (LTBR) |
Arrival
| Time | 2026-04-23 14:11 |
|---|---|
| Airport | Muş Airport (LTCK) |
| Time | Latitude | Longitude | Altitude | Speed | Heading |
|---|---|---|---|---|---|
| 2026-04-23 12:33 | 40.25571 | 29.54401 | 767 ft | 0 kts | 343° |
| 2026-04-23 12:43 | 40.25569 | 29.54402 | 767 ft | 2 kts | 344° |
| 2026-04-23 12:43 | 40.25544 | 29.54407 | 767 ft | 4 kts | 6° |
| 2026-04-23 12:44 | 40.25520 | 29.54397 | 767 ft | 4 kts | 41° |
| 2026-04-23 12:44 | 40.25507 | 29.54374 | 767 ft | 1 kts | 74° |
| 2026-04-23 12:46 | 40.25507 | 29.54375 | 767 ft | 1 kts | 74° |
| 2026-04-23 12:46 | 40.25515 | 29.54410 | 767 ft | 7 kts | 74° |
| 2026-04-23 12:47 | 40.25474 | 29.54464 | 767 ft | 13 kts | 163° |
| 2026-04-23 12:47 | 40.25379 | 29.54499 | 767 ft | 15 kts | 164° |
| 2026-04-23 12:47 | 40.25279 | 29.54537 | 768 ft | 13 kts | 164° |
| 2026-04-23 12:47 | 40.25237 | 29.54633 | 767 ft | 16 kts | 71° |
| 2026-04-23 12:48 | 40.25245 | 29.54668 | 766 ft | 0 kts | 75° |
| 2026-04-23 12:48 | 40.25325 | 29.55044 | 767 ft | 91 kts | 74° |
| 2026-04-23 12:48 | 40.25569 | 29.56175 | 773 ft | 163 kts | 76° |
| 2026-04-23 12:49 | 40.25889 | 29.57748 | 1288 ft | 190 kts | 74° |
| 2026-04-23 12:49 | 40.26261 | 29.59492 | 2150 ft | 209 kts | 72° |
| 2026-04-23 12:49 | 40.26688 | 29.61393 | 2962 ft | 224 kts | 72° |
| 2026-04-23 12:49 | 40.27133 | 29.63378 | 3758 ft | 232 kts | 72° |
| 2026-04-23 12:50 | 40.27589 | 29.65440 | 4585 ft | 240 kts | 71° |
| 2026-04-23 12:50 | 40.28060 | 29.67576 | 5391 ft | 249 kts | 72° |
| 2026-04-23 12:50 | 40.28550 | 29.69813 | 6133 ft | 264 kts | 72° |
| 2026-04-23 12:50 | 40.29059 | 29.72144 | 6927 ft | 273 kts | 73° |
| 2026-04-23 12:51 | 40.29583 | 29.74576 | 7817 ft | 281 kts | 72° |
| 2026-04-23 12:51 | 40.30079 | 29.77086 | 8682 ft | 287 kts | 75° |
| 2026-04-23 12:51 | 40.30552 | 29.79653 | 9574 ft | 293 kts | 75° |
| 2026-04-23 12:51 | 40.31030 | 29.82283 | 10269 ft | 305 kts | 75° |
| 2026-04-23 12:52 | 40.31543 | 29.85090 | 10561 ft | 328 kts | 75° |
| 2026-04-23 12:52 | 40.32095 | 29.88099 | 10855 ft | 349 kts | 75° |
| 2026-04-23 12:52 | 40.32672 | 29.91233 | 11481 ft | 357 kts | 75° |
| 2026-04-23 12:52 | 40.33263 | 29.94426 | 12174 ft | 363 kts | 75° |
| 2026-04-23 12:53 | 40.33862 | 29.97661 | 12899 ft | 368 kts | 75° |
| 2026-04-23 12:53 | 40.34467 | 30.00931 | 13599 ft | 373 kts | 75° |
| 2026-04-23 12:53 | 40.35083 | 30.04257 | 14251 ft | 377 kts | 75° |
| 2026-04-23 12:53 | 40.35708 | 30.07623 | 14859 ft | 383 kts | 75° |
| 2026-04-23 12:54 | 40.36340 | 30.11039 | 15438 ft | 388 kts | 75° |
| 2026-04-23 12:54 | 40.36977 | 30.14518 | 15929 ft | 397 kts | 77° |
| 2026-04-23 12:54 | 40.37357 | 30.18138 | 16424 ft | 404 kts | 88° |
| 2026-04-23 12:54 | 40.37276 | 30.21834 | 16968 ft | 409 kts | 98° |
| 2026-04-23 12:55 | 40.36891 | 30.25553 | 17520 ft | 414 kts | 100° |
| 2026-04-23 12:55 | 40.36497 | 30.29312 | 18105 ft | 419 kts | 100° |
| 2026-04-23 12:55 | 40.36096 | 30.33126 | 18633 ft | 425 kts | 100° |
| 2026-04-23 12:55 | 40.35683 | 30.36990 | 19126 ft | 430 kts | 101° |
| 2026-04-23 12:56 | 40.35404 | 30.39577 | 19450 ft | 434 kts | 101° |
| 2026-04-23 12:56 | 40.34978 | 30.43534 | 19890 ft | 442 kts | 102° |
| 2026-04-23 12:56 | 40.34546 | 30.47548 | 20373 ft | 448 kts | 102° |
| 2026-04-23 12:56 | 40.34109 | 30.51616 | 20845 ft | 453 kts | 103° |
| 2026-04-23 12:57 | 40.33668 | 30.55733 | 21324 ft | 457 kts | 103° |
| 2026-04-23 12:57 | 40.33223 | 30.59875 | 21785 ft | 462 kts | 103° |
| 2026-04-23 12:57 | 40.32773 | 30.64061 | 22242 ft | 466 kts | 103° |
| 2026-04-23 12:57 | 40.32315 | 30.68286 | 22713 ft | 471 kts | 104° |
| 2026-04-23 12:58 | 40.31846 | 30.72558 | 23116 ft | 477 kts | 104° |
| 2026-04-23 12:58 | 40.31366 | 30.76888 | 23555 ft | 482 kts | 104° |
| 2026-04-23 12:58 | 40.30882 | 30.81245 | 23941 ft | 486 kts | 104° |
| 2026-04-23 12:58 | 40.30396 | 30.85631 | 24344 ft | 489 kts | 104° |
| 2026-04-23 12:59 | 40.29905 | 30.90056 | 24762 ft | 492 kts | 104° |
| 2026-04-23 12:59 | 40.29412 | 30.94496 | 25168 ft | 495 kts | 104° |
| 2026-04-23 12:59 | 40.28913 | 30.98968 | 25548 ft | 497 kts | 104° |
| 2026-04-23 12:59 | 40.28408 | 31.03459 | 25928 ft | 500 kts | 104° |
| 2026-04-23 13:00 | 40.27897 | 31.07978 | 26347 ft | 502 kts | 104° |
| 2026-04-23 13:00 | 40.27382 | 31.12519 | 26745 ft | 505 kts | 104° |
| 2026-04-23 13:00 | 40.26863 | 31.17074 | 27139 ft | 508 kts | 104° |
| 2026-04-23 13:00 | 40.26339 | 31.21672 | 27529 ft | 511 kts | 104° |
| 2026-04-23 13:01 | 40.25813 | 31.26286 | 27912 ft | 514 kts | 103° |
| 2026-04-23 13:01 | 40.25282 | 31.30929 | 28294 ft | 517 kts | 103° |
| 2026-04-23 13:01 | 40.24748 | 31.35592 | 28663 ft | 520 kts | 103° |
| 2026-04-23 13:01 | 40.24207 | 31.40283 | 29035 ft | 523 kts | 103° |
| 2026-04-23 13:02 | 40.23658 | 31.44998 | 29382 ft | 526 kts | 103° |
| 2026-04-23 13:02 | 40.23108 | 31.49706 | 29758 ft | 530 kts | 103° |
| 2026-04-23 13:02 | 40.22550 | 31.54477 | 30103 ft | 532 kts | 103° |
| 2026-04-23 13:02 | 40.21994 | 31.59251 | 30698 ft | 527 kts | 103° |
| 2026-04-23 13:03 | 40.21440 | 31.63985 | 31273 ft | 524 kts | 103° |
| 2026-04-23 13:03 | 40.20885 | 31.68687 | 31786 ft | 522 kts | 103° |
| 2026-04-23 13:03 | 40.20332 | 31.73372 | 32312 ft | 520 kts | 103° |
| 2026-04-23 13:03 | 40.19776 | 31.78051 | 32835 ft | 519 kts | 103° |
| 2026-04-23 13:04 | 40.19217 | 31.82694 | 33325 ft | 517 kts | 103° |
| 2026-04-23 13:04 | 40.18654 | 31.87352 | 33794 ft | 517 kts | 102° |
| 2026-04-23 13:04 | 40.18159 | 31.92007 | 34239 ft | 517 kts | 100° |
| 2026-04-23 13:04 | 40.17775 | 31.96611 | 34669 ft | 516 kts | 98° |
| 2026-04-23 13:05 | 40.17461 | 32.01292 | 34894 ft | 516 kts | 97° |
| 2026-04-23 13:05 | 40.17183 | 32.05963 | 34955 ft | 515 kts | 97° |
| 2026-04-23 13:05 | 40.16375 | 32.15261 | 34954 ft | 512 kts | 102° |
| 2026-04-23 13:06 | 40.14341 | 32.28941 | 34950 ft | 511 kts | 105° |
| 2026-04-23 13:07 | 40.12961 | 32.38045 | 34942 ft | 511 kts | 104° |
| 2026-04-23 13:07 | 40.11703 | 32.47187 | 34946 ft | 511 kts | 103° |
| 2026-04-23 13:08 | 40.10460 | 32.56402 | 34943 ft | 522 kts | 103° |
| 2026-04-23 13:08 | 40.09167 | 32.65714 | 34947 ft | 525 kts | 104° |
| 2026-04-23 13:09 | 40.07833 | 32.75107 | 34935 ft | 526 kts | 104° |
| 2026-04-23 13:09 | 40.06035 | 32.84313 | 34933 ft | 519 kts | 116° |
| 2026-04-23 13:10 | 40.03447 | 32.93127 | 34918 ft | 520 kts | 116° |
| 2026-04-23 13:10 | 40.00845 | 33.01943 | 34922 ft | 519 kts | 116° |
| 2026-04-23 13:11 | 39.98242 | 33.10735 | 34924 ft | 519 kts | 116° |
| 2026-04-23 13:11 | 39.95640 | 33.19519 | 34908 ft | 519 kts | 116° |
| 2026-04-23 13:12 | 39.93035 | 33.28291 | 34929 ft | 518 kts | 116° |
| 2026-04-23 13:12 | 39.90419 | 33.37046 | 34941 ft | 518 kts | 116° |
| 2026-04-23 13:13 | 39.87806 | 33.45781 | 34952 ft | 518 kts | 116° |
| 2026-04-23 13:13 | 39.85186 | 33.54518 | 34945 ft | 517 kts | 116° |
| 2026-04-23 13:14 | 39.82749 | 33.63346 | 34948 ft | 522 kts | 109° |
| 2026-04-23 13:14 | 39.80917 | 33.72430 | 34937 ft | 522 kts | 109° |
| 2026-04-23 13:15 | 39.79069 | 33.81568 | 34922 ft | 522 kts | 109° |
| 2026-04-23 13:15 | 39.77075 | 33.90634 | 34941 ft | 518 kts | 115° |
| 2026-04-23 13:16 | 39.74582 | 33.99425 | 34948 ft | 519 kts | 115° |
| 2026-04-23 13:16 | 39.72080 | 34.08223 | 34936 ft | 518 kts | 116° |
| 2026-04-23 13:17 | 39.69582 | 34.16998 | 34948 ft | 517 kts | 115° |
| 2026-04-23 13:17 | 39.67089 | 34.25750 | 34949 ft | 517 kts | 116° |
| 2026-04-23 13:18 | 39.64589 | 34.34494 | 34937 ft | 516 kts | 116° |
| 2026-04-23 13:18 | 39.62082 | 34.43210 | 34948 ft | 516 kts | 116° |
| 2026-04-23 13:19 | 39.59569 | 34.51914 | 34945 ft | 515 kts | 116° |
| 2026-04-23 13:19 | 39.57051 | 34.60626 | 34928 ft | 515 kts | 116° |
| 2026-04-23 13:20 | 39.54535 | 34.69310 | 34928 ft | 514 kts | 116° |
| 2026-04-23 13:20 | 39.52007 | 34.77975 | 34937 ft | 514 kts | 116° |
| 2026-04-23 13:21 | 39.49470 | 34.86637 | 34918 ft | 514 kts | 116° |
| 2026-04-23 13:21 | 39.46936 | 34.95280 | 34929 ft | 514 kts | 116° |
| 2026-04-23 13:22 | 39.44397 | 35.03923 | 34941 ft | 514 kts | 116° |
| 2026-04-23 13:22 | 39.41870 | 35.12509 | 34930 ft | 514 kts | 117° |
| 2026-04-23 13:23 | 39.39317 | 35.21147 | 34910 ft | 514 kts | 116° |
| 2026-04-23 13:23 | 39.36802 | 35.29810 | 34911 ft | 515 kts | 116° |
| 2026-04-23 13:24 | 39.34310 | 35.38478 | 34913 ft | 515 kts | 116° |
| 2026-04-23 13:24 | 39.31794 | 35.47142 | 34897 ft | 515 kts | 116° |
| 2026-04-23 13:25 | 39.29260 | 35.55788 | 34896 ft | 515 kts | 116° |
| 2026-04-23 13:25 | 39.26722 | 35.64441 | 34895 ft | 515 kts | 116° |
| 2026-04-23 13:26 | 39.24186 | 35.73081 | 34876 ft | 515 kts | 116° |
| 2026-04-23 13:26 | 39.21645 | 35.81710 | 34886 ft | 514 kts | 116° |
| 2026-04-23 13:27 | 39.19096 | 35.90329 | 34883 ft | 514 kts | 116° |
| 2026-04-23 13:27 | 39.16539 | 35.98938 | 34888 ft | 513 kts | 116° |
| 2026-04-23 13:28 | 39.14750 | 36.07901 | 34881 ft | 521 kts | 103° |
| 2026-04-23 13:28 | 39.13607 | 36.17129 | 34878 ft | 521 kts | 103° |
| 2026-04-23 13:29 | 39.12423 | 36.26323 | 34872 ft | 520 kts | 104° |
| 2026-04-23 13:29 | 39.11231 | 36.35452 | 34869 ft | 520 kts | 104° |
| 2026-04-23 13:30 | 39.10051 | 36.44630 | 34867 ft | 520 kts | 104° |
| 2026-04-23 13:30 | 39.08869 | 36.53820 | 34863 ft | 520 kts | 104° |
| 2026-04-23 13:31 | 39.07676 | 36.62992 | 34854 ft | 520 kts | 104° |
| 2026-04-23 13:31 | 39.06466 | 36.72163 | 34861 ft | 519 kts | 104° |
| 2026-04-23 13:32 | 39.05249 | 36.81329 | 34865 ft | 519 kts | 104° |
| 2026-04-23 13:32 | 39.04038 | 36.90478 | 34853 ft | 520 kts | 104° |
| 2026-04-23 13:33 | 39.02815 | 36.99665 | 34845 ft | 520 kts | 104° |
| 2026-04-23 13:33 | 39.01581 | 37.08846 | 34842 ft | 521 kts | 104° |
| 2026-04-23 13:34 | 39.00339 | 37.18045 | 34845 ft | 522 kts | 104° |
| 2026-04-23 13:34 | 38.99086 | 37.27231 | 34840 ft | 522 kts | 104° |
| 2026-04-23 13:35 | 38.97822 | 37.36432 | 34843 ft | 523 kts | 104° |
| 2026-04-23 13:35 | 38.96560 | 37.45569 | 34854 ft | 523 kts | 104° |
| 2026-04-23 13:36 | 38.95287 | 37.54771 | 34839 ft | 523 kts | 104° |
| 2026-04-23 13:36 | 38.94003 | 37.63961 | 34867 ft | 523 kts | 104° |
| 2026-04-23 13:37 | 38.92710 | 37.73164 | 34858 ft | 524 kts | 104° |
| 2026-04-23 13:37 | 38.91411 | 37.82376 | 34850 ft | 524 kts | 104° |
| 2026-04-23 13:38 | 38.90104 | 37.91594 | 34841 ft | 525 kts | 104° |
| 2026-04-23 13:38 | 38.88788 | 38.00814 | 34852 ft | 525 kts | 104° |
| 2026-04-23 13:39 | 38.87465 | 38.10026 | 34857 ft | 525 kts | 104° |
| 2026-04-23 13:39 | 38.86127 | 38.19232 | 34841 ft | 525 kts | 104° |
| 2026-04-23 13:40 | 38.85006 | 38.26872 | 34860 ft | 524 kts | 104° |
| 2026-04-23 13:40 | 38.83656 | 38.36121 | 34877 ft | 524 kts | 104° |
| 2026-04-23 13:41 | 38.82330 | 38.45248 | 34885 ft | 523 kts | 104° |
| 2026-04-23 13:41 | 38.80977 | 38.54433 | 34869 ft | 524 kts | 104° |
| 2026-04-23 13:42 | 38.79606 | 38.63615 | 34872 ft | 525 kts | 104° |
| 2026-04-23 13:42 | 38.78224 | 38.72797 | 34865 ft | 525 kts | 104° |
| 2026-04-23 13:43 | 38.76842 | 38.82008 | 34868 ft | 526 kts | 104° |
| 2026-04-23 13:43 | 38.75467 | 38.91208 | 34888 ft | 526 kts | 104° |
| 2026-04-23 13:44 | 38.74091 | 39.00407 | 34898 ft | 526 kts | 104° |
| 2026-04-23 13:44 | 38.72724 | 39.09602 | 34910 ft | 526 kts | 104° |
| 2026-04-23 13:45 | 38.71358 | 39.18796 | 34912 ft | 524 kts | 104° |
| 2026-04-23 13:45 | 38.70785 | 39.23372 | 34763 ft | 518 kts | 98° |
| 2026-04-23 13:45 | 38.70561 | 39.27945 | 34423 ft | 515 kts | 95° |
| 2026-04-23 13:45 | 38.70361 | 39.32527 | 34088 ft | 514 kts | 95° |
| 2026-04-23 13:46 | 38.70155 | 39.37090 | 33726 ft | 514 kts | 95° |
| 2026-04-23 13:46 | 38.69943 | 39.41657 | 33343 ft | 514 kts | 95° |
| 2026-04-23 13:46 | 38.69727 | 39.46226 | 32959 ft | 514 kts | 95° |
| 2026-04-23 13:46 | 38.69508 | 39.50788 | 32585 ft | 514 kts | 95° |
| 2026-04-23 13:47 | 38.69286 | 39.55364 | 32222 ft | 514 kts | 95° |
| 2026-04-23 13:47 | 38.69071 | 39.59928 | 31853 ft | 515 kts | 95° |
| 2026-04-23 13:47 | 38.68865 | 39.64507 | 31497 ft | 515 kts | 95° |
| 2026-04-23 13:47 | 38.68663 | 39.69081 | 31140 ft | 515 kts | 95° |
| 2026-04-23 13:48 | 38.68461 | 39.73662 | 30791 ft | 515 kts | 95° |
| 2026-04-23 13:48 | 38.68255 | 39.78246 | 30444 ft | 516 kts | 95° |
| 2026-04-23 13:48 | 38.68045 | 39.82819 | 30089 ft | 516 kts | 95° |
| 2026-04-23 13:48 | 38.67830 | 39.87400 | 29709 ft | 516 kts | 95° |
| 2026-04-23 13:49 | 38.67610 | 39.91981 | 29311 ft | 516 kts | 95° |
| 2026-04-23 13:49 | 38.67389 | 39.96556 | 28923 ft | 514 kts | 95° |
| 2026-04-23 13:49 | 38.67172 | 40.01102 | 28543 ft | 511 kts | 95° |
| 2026-04-23 13:49 | 38.66957 | 40.05622 | 28157 ft | 508 kts | 95° |
| 2026-04-23 13:50 | 38.66738 | 40.10119 | 27782 ft | 505 kts | 95° |
| 2026-04-23 13:50 | 38.66516 | 40.14584 | 27415 ft | 501 kts | 95° |
| 2026-04-23 13:50 | 38.66292 | 40.19023 | 27036 ft | 498 kts | 95° |
| 2026-04-23 13:50 | 38.66070 | 40.23434 | 26686 ft | 495 kts | 95° |
| 2026-04-23 13:51 | 38.65854 | 40.27820 | 26334 ft | 492 kts | 95° |
| 2026-04-23 13:51 | 38.65642 | 40.32180 | 25973 ft | 489 kts | 95° |
| 2026-04-23 13:51 | 38.65431 | 40.36507 | 25631 ft | 486 kts | 95° |
| 2026-04-23 13:51 | 38.65218 | 40.40820 | 25287 ft | 484 kts | 95° |
| 2026-04-23 13:52 | 38.65004 | 40.45095 | 24961 ft | 481 kts | 95° |
| 2026-04-23 13:52 | 38.64792 | 40.49297 | 24623 ft | 478 kts | 95° |
| 2026-04-23 13:52 | 38.64573 | 40.53591 | 24289 ft | 476 kts | 95° |
| 2026-04-23 13:52 | 38.64360 | 40.57741 | 23957 ft | 473 kts | 96° |
| 2026-04-23 13:53 | 38.64141 | 40.61927 | 23637 ft | 471 kts | 96° |
| 2026-04-23 13:53 | 38.63922 | 40.66095 | 23273 ft | 468 kts | 96° |
| 2026-04-23 13:53 | 38.63703 | 40.70245 | 22889 ft | 465 kts | 96° |
| 2026-04-23 13:53 | 38.63484 | 40.74357 | 22524 ft | 463 kts | 96° |
| 2026-04-23 13:54 | 38.63265 | 40.78466 | 22138 ft | 460 kts | 96° |
| 2026-04-23 13:54 | 38.63048 | 40.82539 | 21770 ft | 458 kts | 96° |
| 2026-04-23 13:54 | 38.62826 | 40.86584 | 21421 ft | 456 kts | 96° |
| 2026-04-23 13:54 | 38.62589 | 40.90620 | 21061 ft | 454 kts | 96° |
| 2026-04-23 13:55 | 38.62344 | 40.94644 | 20694 ft | 451 kts | 96° |
| 2026-04-23 13:55 | 38.62097 | 40.98634 | 20347 ft | 449 kts | 96° |
| 2026-04-23 13:55 | 38.61848 | 41.02599 | 19996 ft | 447 kts | 96° |
| 2026-04-23 13:55 | 38.61601 | 41.06551 | 19653 ft | 444 kts | 96° |
| 2026-04-23 13:56 | 38.61357 | 41.10479 | 19317 ft | 441 kts | 96° |
| 2026-04-23 13:56 | 38.61115 | 41.14380 | 18981 ft | 439 kts | 96° |
| 2026-04-23 13:56 | 38.60870 | 41.18270 | 18659 ft | 438 kts | 96° |
| 2026-04-23 13:56 | 38.60625 | 41.22147 | 18331 ft | 437 kts | 96° |
| 2026-04-23 13:57 | 38.60380 | 41.26005 | 17959 ft | 434 kts | 96° |
| 2026-04-23 13:57 | 38.60139 | 41.29828 | 17586 ft | 431 kts | 97° |
| 2026-04-23 13:57 | 38.59917 | 41.33638 | 17215 ft | 428 kts | 93° |
| 2026-04-23 13:57 | 38.60098 | 41.37370 | 16982 ft | 426 kts | 81° |
| 2026-04-23 13:58 | 38.60839 | 41.41034 | 17008 ft | 426 kts | 69° |
| 2026-04-23 13:58 | 38.62082 | 41.44471 | 16881 ft | 425 kts | 58° |
| 2026-04-23 13:58 | 38.63765 | 41.47530 | 16595 ft | 420 kts | 50° |
| 2026-04-23 13:58 | 38.65556 | 41.50481 | 16309 ft | 418 kts | 50° |
| 2026-04-23 13:59 | 38.67337 | 41.53417 | 16034 ft | 417 kts | 50° |
| 2026-04-23 13:59 | 38.69109 | 41.56345 | 15761 ft | 415 kts | 50° |
| 2026-04-23 13:59 | 38.70865 | 41.59252 | 15481 ft | 412 kts | 51° |
| 2026-04-23 13:59 | 38.72374 | 41.62360 | 15192 ft | 410 kts | 66° |
| 2026-04-23 14:00 | 38.72982 | 41.64692 | 15018 ft | 408 kts | 78° |
| 2026-04-23 14:00 | 38.73121 | 41.69399 | 14663 ft | 392 kts | 101° |
| 2026-04-23 14:00 | 38.72380 | 41.72664 | 14403 ft | 374 kts | 118° |
| 2026-04-23 14:00 | 38.71240 | 41.75599 | 14137 ft | 363 kts | 121° |
| 2026-04-23 14:01 | 38.70114 | 41.78444 | 13876 ft | 354 kts | 122° |
| 2026-04-23 14:01 | 38.69012 | 41.81228 | 13600 ft | 347 kts | 122° |
| 2026-04-23 14:01 | 38.67932 | 41.83951 | 13327 ft | 340 kts | 121° |
| 2026-04-23 14:01 | 38.66869 | 41.86624 | 13019 ft | 334 kts | 121° |
| 2026-04-23 14:02 | 38.65821 | 41.89257 | 12736 ft | 328 kts | 121° |
| 2026-04-23 14:02 | 38.64813 | 41.91796 | 12448 ft | 312 kts | 122° |
| 2026-04-23 14:02 | 38.63858 | 41.94212 | 12169 ft | 297 kts | 122° |
| 2026-04-23 14:02 | 38.62947 | 41.96519 | 11889 ft | 284 kts | 122° |
| 2026-04-23 14:03 | 38.62030 | 41.98691 | 11616 ft | 268 kts | 133° |
| 2026-04-23 14:03 | 38.60656 | 42.00026 | 11335 ft | 237 kts | 171° |
| 2026-04-23 14:03 | 38.59133 | 41.99961 | 11058 ft | 212 kts | 209° |
| 2026-04-23 14:03 | 38.58154 | 41.98690 | 10790 ft | 202 kts | 246° |
| 2026-04-23 14:04 | 38.57943 | 41.97301 | 10571 ft | 207 kts | 269° |
| 2026-04-23 14:04 | 38.58408 | 41.95608 | 10341 ft | 217 kts | 300° |
| 2026-04-23 14:04 | 38.59588 | 41.94356 | 10093 ft | 223 kts | 319° |
| 2026-04-23 14:04 | 38.60877 | 41.93257 | 9821 ft | 223 kts | 319° |
| 2026-04-23 14:05 | 38.62171 | 41.92167 | 9524 ft | 223 kts | 319° |
| 2026-04-23 14:05 | 38.63448 | 41.91091 | 9158 ft | 223 kts | 320° |
| 2026-04-23 14:05 | 38.64744 | 41.89996 | 8719 ft | 224 kts | 320° |
| 2026-04-23 14:05 | 38.65939 | 41.88763 | 8262 ft | 215 kts | 298° |
| 2026-04-23 14:06 | 38.66636 | 41.87130 | 7913 ft | 206 kts | 289° |
| 2026-04-23 14:06 | 38.67262 | 41.85509 | 7600 ft | 199 kts | 288° |
| 2026-04-23 14:06 | 38.67852 | 41.83992 | 7314 ft | 183 kts | 285° |
| 2026-04-23 14:06 | 38.68401 | 41.82581 | 7047 ft | 171 kts | 285° |
| 2026-04-23 14:07 | 38.68904 | 41.81293 | 6806 ft | 153 kts | 284° |
| 2026-04-23 14:07 | 38.69814 | 41.78938 | 6388 ft | 145 kts | 283° |
| 2026-04-23 14:07 | 38.70260 | 41.77785 | 6157 ft | 144 kts | 283° |
| 2026-04-23 14:08 | 38.70704 | 41.76638 | 5917 ft | 145 kts | 288° |
| 2026-04-23 14:08 | 38.71152 | 41.75484 | 5672 ft | 145 kts | 290° |
| 2026-04-23 14:08 | 38.71602 | 41.74323 | 5409 ft | 146 kts | 292° |
| 2026-04-23 14:08 | 38.72054 | 41.73159 | 5200 ft | 146 kts | 294° |
| 2026-04-23 14:09 | 38.72511 | 41.71999 | 4953 ft | 147 kts | 292° |
| 2026-04-23 14:09 | 38.72969 | 41.70827 | 4698 ft | 147 kts | 291° |
| 2026-04-23 14:09 | 38.73423 | 41.69635 | 4495 ft | 150 kts | 296° |
| 2026-04-23 14:09 | 38.73889 | 41.68416 | 4288 ft | 153 kts | 300° |
| 2026-04-23 14:10 | 38.74364 | 41.67206 | 4164 ft | 147 kts | 300° |
| 2026-04-23 14:10 | 38.74761 | 41.66175 | 4165 ft | 113 kts | 296° |
| 2026-04-23 14:10 | 38.75072 | 41.65366 | 4168 ft | 91 kts | 296° |
| 2026-04-23 14:10 | 38.75322 | 41.64715 | 4164 ft | 71 kts | 295° |
| 2026-04-23 14:11 | 38.75449 | 41.64393 | 4162 ft | 18 kts | 314° |
| 2026-04-23 14:11 | 38.75545 | 41.64413 | 4164 ft | 9 kts | 26° |
| 2026-04-23 14:11 | 38.75611 | 41.64454 | 4164 ft | 12 kts | 26° |
| 2026-04-23 14:11 | 38.75690 | 41.64503 | 4165 ft | 13 kts | 26° |
| 2026-04-23 14:12 | 38.75775 | 41.64557 | 4167 ft | 14 kts | 27° |
| 2026-04-23 14:12 | 38.75865 | 41.64616 | 4167 ft | 12 kts | 26° |
| 2026-04-23 14:12 | 38.75905 | 41.64622 | 4170 ft | 4 kts | 348° |
| 2026-04-23 14:12 | 38.75919 | 41.64624 | 4171 ft | 2 kts | 13° |
| 2026-04-23 14:13 | 38.75942 | 41.64638 | 4171 ft | 6 kts | 26° |
| 2026-04-23 14:13 | 38.75968 | 41.64655 | 4169 ft | 2 kts | 26° |
| 2026-04-23 14:13 | 38.75969 | 41.64655 | 4169 ft | 0 kts | 26° |